Northglenn, Colorado
Current Conditions -  °F | °C
As of 12:04 PM on Monday 20 Oct 2014 (Local Time) from KBJC Reporting Station
Few Clouds Few Clouds  
Wind Chill: 70°   Ceiling: Unl
Heat Index: 70°   Visibility: 50mi
Dew Point: 37°   Wind: 0mph
Humidity: 31%   Direction: NA
Pressure: 30.16"   Gusts: NA
Location:  39.91°N, 104.98°W
Report Text: KBJC 201804Z 00000KT 50SM FEW100 21/03 A3016
Loading
Personal Weather Stations






























Interactive Weather Map
Tropical Storm Tracking
New forecast layout! Learn more

10-Day Weather Forecast

Advertisements
Track Severe Weather on mobile